createdAt,value
2023-05-02T00:02:01.898Z,9.25
2023-05-02T00:04:30.221Z,9.55
2023-05-02T00:06:57.949Z,10.63
2023-05-02T00:09:25.954Z,10.18
2023-05-02T00:11:53.560Z,10.20
2023-05-02T00:14:21.089Z,9.38
2023-05-02T00:16:48.624Z,9.38
2023-05-02T00:19:16.255Z,9.25
2023-05-02T00:21:43.672Z,10.65
2023-05-02T00:24:11.361Z,9.70
2023-05-02T00:26:38.828Z,9.88
2023-05-02T00:29:08.130Z,9.98
2023-05-02T00:31:36.361Z,10.43
2023-05-02T00:34:05.241Z,10.90
2023-05-02T00:36:32.984Z,10.82
2023-05-02T00:39:00.460Z,11.75
2023-05-02T00:41:27.992Z,10.73
2023-05-02T00:43:55.446Z,10.63
2023-05-02T00:46:23.150Z,10.48
2023-05-02T00:48:50.687Z,10.30
2023-05-02T00:51:18.458Z,11.00
2023-05-02T00:53:46.564Z,10.23
2023-05-02T00:56:13.978Z,11.27
2023-05-02T00:58:41.785Z,11.15
2023-05-02T01:01:17.805Z,11.20
2023-05-02T01:04:05.403Z,11.07
2023-05-02T01:06:52.231Z,11.63
2023-05-02T01:09:19.822Z,10.50
2023-05-02T01:12:05.513Z,10.40
2023-05-02T01:14:37.488Z,11.10
2023-05-02T01:17:07.457Z,10.95
2023-05-02T01:19:37.348Z,11.18
2023-05-02T01:22:06.296Z,11.75
2023-05-02T01:24:36.561Z,11.68
2023-05-02T01:27:22.528Z,10.98
2023-05-02T01:29:51.928Z,12.05
2023-05-02T01:32:21.491Z,11.90
2023-05-02T01:34:49.353Z,12.15
2023-05-02T01:37:18.607Z,11.48
2023-05-02T01:39:47.546Z,11.70
2023-05-02T01:42:15.779Z,11.50
2023-05-02T01:44:44.629Z,12.00
2023-05-02T01:47:13.106Z,11.43
2023-05-02T01:49:41.836Z,11.75
2023-05-02T01:52:11.551Z,11.95
2023-05-02T01:54:41.253Z,12.20
2023-05-02T01:57:09.996Z,11.45
2023-05-02T01:59:38.197Z,12.07
2023-05-02T02:02:06.619Z,12.10
2023-05-02T02:04:35.638Z,11.82
2023-05-02T02:07:04.441Z,11.38
2023-05-02T02:09:32.344Z,11.68
2023-05-02T02:12:06.447Z,11.82
2023-05-02T02:14:44.740Z,11.68
2023-05-02T02:17:14.295Z,12.43
2023-05-02T02:19:42.211Z,11.93
2023-05-02T02:22:10.043Z,11.70
2023-05-02T02:24:38.558Z,11.70
2023-05-02T02:30:16.869Z,11.52
2023-05-02T02:32:44.486Z,11.73
2023-05-02T02:35:12.288Z,12.63
2023-05-02T02:37:47.178Z,12.00
2023-05-02T02:40:18.582Z,11.48
2023-05-02T02:43:10.972Z,12.35
2023-05-02T02:45:47.412Z,12.85
2023-05-02T02:48:21.355Z,12.27
2023-05-02T02:51:07.203Z,12.65
2023-05-02T02:53:48.258Z,13.13
2023-05-02T02:56:17.259Z,11.60
2023-05-02T02:59:01.594Z,11.70
2023-05-02T03:01:32.570Z,13.35
2023-05-02T03:04:00.803Z,13.70
2023-05-02T03:06:28.577Z,13.30
2023-05-02T03:08:57.531Z,12.93
2023-05-02T03:11:29.735Z,12.60
2023-05-02T03:13:58.582Z,11.73
2023-05-02T03:16:33.400Z,12.20
2023-05-02T03:19:01.792Z,12.07
2023-05-02T03:21:31.666Z,11.23
2023-05-02T03:24:05.409Z,11.00
2023-05-02T03:26:32.942Z,11.25
2023-05-02T03:29:01.059Z,11.38
2023-05-02T03:31:37.184Z,11.25
2023-05-02T03:34:05.343Z,11.18
2023-05-02T03:36:33.840Z,9.73
2023-05-02T03:39:01.595Z,9.73
2023-05-02T03:41:30.425Z,10.82
2023-05-02T03:44:03.741Z,11.43
2023-05-02T03:46:32.636Z,11.70
2023-05-02T03:49:01.824Z,11.82
2023-05-02T03:51:29.222Z,10.05
2023-05-02T03:53:58.570Z,11.68
2023-05-02T03:56:26.595Z,12.48
2023-05-02T03:59:09.949Z,10.50
2023-05-02T04:01:38.781Z,7.97
2023-05-02T04:04:07.391Z,6.43
2023-05-02T04:06:40.460Z,7.53
2023-05-02T04:09:09.604Z,11.82
2023-05-02T04:11:43.490Z,12.27
2023-05-02T04:14:13.171Z,12.45
2023-05-02T04:16:42.396Z,11.75
2023-05-02T04:19:11.926Z,10.55
2023-05-02T04:21:40.013Z,8.70
2023-05-02T04:24:08.831Z,9.90
2023-05-02T04:26:37.219Z,7.90
2023-05-02T04:29:08.561Z,7.45
2023-05-02T04:31:36.831Z,9.60
2023-05-02T04:34:04.715Z,11.13
2023-05-02T04:36:37.738Z,10.90
2023-05-02T04:39:07.949Z,10.90
2023-05-02T04:41:37.910Z,10.13
2023-05-02T04:44:07.711Z,10.52
2023-05-02T04:46:36.666Z,8.30
2023-05-02T04:49:04.270Z,9.85
2023-05-02T04:51:32.016Z,8.82
2023-05-02T04:54:00.701Z,5.20
2023-05-02T04:56:28.687Z,5.30
2023-05-02T04:58:56.215Z,4.13
2023-05-02T05:01:24.664Z,3.80
2023-05-02T05:03:52.591Z,3.92
2023-05-02T05:06:20.675Z,3.75
2023-05-02T05:08:48.806Z,3.72
2023-05-02T05:11:17.236Z,3.50
2023-05-02T05:13:44.779Z,3.45
2023-05-02T05:16:13.813Z,3.30
2023-05-02T05:18:42.657Z,3.13
2023-05-02T05:21:13.120Z,2.65
2023-05-02T05:23:46.171Z,3.10
2023-05-02T05:26:17.533Z,3.15
2023-05-02T05:28:50.454Z,2.92
2023-05-02T05:31:19.114Z,3.20
2023-05-02T05:33:50.512Z,3.17
2023-05-02T05:36:18.660Z,3.20
2023-05-02T05:38:46.502Z,6.68
2023-05-02T05:41:14.682Z,8.00
2023-05-02T05:43:47.067Z,8.23
2023-05-02T05:46:14.692Z,8.07
2023-05-02T05:48:42.225Z,7.50
2023-05-02T05:51:10.403Z,4.38
2023-05-02T05:53:37.997Z,4.00
2023-05-02T05:56:14.407Z,3.30
2023-05-02T05:58:48.665Z,2.65
2023-05-02T06:01:16.164Z,3.08
2023-05-02T06:03:43.825Z,3.03
2023-05-02T06:06:11.732Z,2.90
2023-05-02T06:08:39.384Z,3.10
2023-05-02T06:11:11.778Z,3.00
2023-05-02T06:13:39.311Z,3.80
2023-05-02T06:16:08.187Z,3.25
2023-05-02T06:18:35.767Z,3.20
2023-05-02T06:21:06.868Z,3.58
2023-05-02T06:23:34.656Z,3.58
2023-05-02T06:26:03.183Z,3.00
2023-05-02T06:28:30.894Z,3.90
2023-05-02T06:31:01.806Z,3.70
2023-05-02T06:33:29.904Z,4.85
2023-05-02T06:35:59.124Z,5.10
2023-05-02T06:38:27.362Z,4.22
2023-05-02T06:40:54.976Z,3.50
2023-05-02T06:43:22.400Z,3.15
2023-05-02T06:45:49.906Z,3.00
2023-05-02T06:48:17.495Z,3.13
2023-05-02T06:50:47.307Z,2.97
2023-05-02T06:53:15.283Z,2.85
2023-05-02T06:55:42.778Z,2.72
2023-05-02T06:58:10.617Z,2.90
2023-05-02T07:00:38.259Z,2.67
2023-05-02T07:03:05.775Z,2.50
2023-05-02T07:05:33.325Z,2.40
2023-05-02T07:08:00.828Z,2.40
2023-05-02T07:10:28.361Z,2.78
2023-05-02T07:12:56.028Z,3.22
2023-05-02T07:15:23.503Z,3.83
2023-05-02T07:17:51.080Z,3.60
2023-05-02T07:20:18.835Z,3.50
2023-05-02T07:22:46.241Z,3.38
2023-05-02T07:25:13.861Z,3.55
2023-05-02T07:27:41.342Z,3.30
2023-05-02T07:30:09.085Z,2.90
2023-05-02T07:32:36.776Z,2.60
2023-05-02T07:35:04.292Z,2.90
2023-05-02T07:37:37.984Z,2.78
2023-05-02T07:40:05.843Z,2.72
2023-05-02T07:42:33.806Z,2.60
2023-05-02T07:45:01.276Z,3.45
2023-05-02T07:47:29.878Z,3.00
2023-05-02T07:49:57.559Z,2.83
2023-05-02T07:52:25.220Z,2.90
2023-05-02T07:54:52.976Z,2.70
2023-05-02T07:57:20.556Z,2.92
2023-05-02T07:59:48.291Z,3.10
2023-05-02T08:02:17.716Z,2.83
2023-05-02T08:04:45.389Z,3.22
2023-05-02T08:07:12.839Z,2.60
2023-05-02T08:09:40.547Z,2.70
2023-05-02T08:12:07.981Z,3.05
2023-05-02T08:14:35.583Z,2.95
2023-05-02T08:17:03.232Z,3.30
2023-05-02T08:19:30.633Z,3.10
2023-05-02T08:21:58.111Z,3.20
2023-05-02T08:24:25.693Z,3.50
2023-05-02T08:26:53.188Z,3.30
2023-05-02T08:29:24.082Z,3.60
2023-05-02T08:31:51.702Z,3.67
2023-05-02T08:34:19.296Z,3.65
2023-05-02T08:36:47.711Z,3.72
2023-05-02T08:39:15.365Z,3.67
2023-05-02T08:41:42.833Z,3.63
2023-05-02T08:44:10.492Z,3.65
2023-05-02T08:46:41.692Z,3.65
2023-05-02T08:49:13.992Z,3.70
2023-05-02T08:51:42.403Z,3.88
2023-05-02T08:54:10.579Z,3.75
2023-05-02T08:56:38.892Z,3.80
2023-05-02T08:59:08.232Z,3.90
2023-05-02T09:01:36.800Z,3.75
2023-05-02T09:04:04.939Z,3.97
2023-05-02T09:06:33.051Z,3.67
2023-05-02T09:09:01.252Z,4.03
2023-05-02T09:11:30.056Z,3.70
2023-05-02T09:14:03.938Z,3.88
2023-05-02T09:16:39.312Z,3.50
2023-05-02T09:19:07.262Z,3.70
2023-05-02T09:21:40.126Z,3.95
2023-05-02T09:24:17.240Z,3.70
2023-05-02T09:26:45.060Z,3.80
2023-05-02T09:29:12.688Z,4.10
2023-05-02T09:34:14.083Z,3.60
2023-05-02T09:36:42.733Z,4.40
2023-05-02T09:39:11.932Z,4.20
2023-05-02T09:41:49.438Z,4.07
2023-05-02T09:44:21.232Z,4.15
2023-05-02T09:46:53.017Z,4.20
2023-05-02T09:49:21.413Z,4.03
2023-05-02T09:51:49.262Z,4.10
2023-05-02T09:54:39.122Z,4.43
2023-05-02T09:57:07.474Z,4.50
2023-05-02T09:59:35.070Z,4.25
2023-05-02T10:02:07.326Z,4.32
2023-05-02T10:04:36.522Z,4.13
2023-05-02T10:07:06.782Z,3.92
2023-05-02T10:09:36.654Z,4.40
2023-05-02T10:12:05.434Z,4.22
2023-05-02T10:14:35.177Z,4.10
2023-05-02T10:17:06.511Z,4.53
2023-05-02T10:19:39.730Z,4.28
2023-05-02T10:22:07.891Z,4.35
2023-05-02T10:24:35.862Z,4.30
2023-05-02T10:27:05.644Z,4.55
2023-05-02T10:29:33.261Z,4.20
2023-05-02T10:32:02.307Z,4.45
2023-05-02T10:34:32.968Z,4.38
2023-05-02T10:37:03.693Z,4.63
2023-05-02T10:39:33.005Z,4.60
2023-05-02T10:42:02.372Z,4.78
2023-05-02T10:44:36.980Z,4.70
2023-05-02T10:47:23.409Z,4.60
2023-05-02T10:49:52.531Z,4.68
2023-05-02T10:52:39.052Z,4.72
2023-05-02T10:55:24.005Z,4.93
2023-05-02T10:58:01.052Z,4.90
2023-05-02T11:00:33.808Z,4.70
2023-05-02T11:03:02.175Z,4.60
2023-05-02T11:05:30.515Z,4.53
2023-05-02T11:08:17.193Z,4.93
2023-05-02T11:10:46.493Z,4.55
2023-05-02T11:13:14.192Z,4.57
2023-05-02T11:15:41.567Z,4.82
2023-05-02T11:18:12.154Z,4.70
2023-05-02T11:20:40.451Z,4.82
2023-05-02T11:23:22.630Z,4.82
2023-05-02T11:25:51.089Z,4.78
2023-05-02T11:28:37.073Z,4.80
2023-05-02T11:31:08.210Z,4.53
2023-05-02T11:33:35.854Z,4.72
2023-05-02T11:36:03.526Z,4.70
2023-05-02T11:38:38.348Z,4.70
2023-05-02T11:41:05.998Z,4.88
2023-05-02T11:43:33.595Z,4.88
2023-05-02T11:46:02.209Z,4.78
2023-05-02T11:48:30.097Z,4.90
2023-05-02T11:51:07.195Z,5.20
2023-05-02T11:53:35.135Z,4.53
2023-05-02T11:56:04.370Z,5.10
2023-05-02T11:58:33.627Z,5.00
2023-05-02T12:01:13.385Z,4.78
2023-05-02T12:03:41.491Z,5.20
2023-05-02T12:06:13.854Z,4.78
2023-05-02T12:08:42.201Z,4.43
2023-05-02T12:11:09.993Z,4.00
2023-05-02T12:13:45.165Z,4.40
2023-05-02T12:16:12.960Z,4.63
2023-05-02T12:18:41.010Z,3.72
2023-05-02T12:21:08.520Z,3.95
2023-05-02T12:23:37.450Z,3.88
2023-05-02T12:26:21.687Z,4.20
2023-05-02T12:28:54.921Z,4.47
2023-05-02T12:31:23.940Z,4.50
2023-05-02T12:33:52.722Z,4.68
2023-05-02T12:36:20.355Z,4.57
2023-05-02T12:38:53.307Z,4.32
2023-05-02T12:41:32.073Z,4.22
2023-05-02T12:44:00.809Z,4.05
2023-05-02T12:46:31.822Z,4.38
2023-05-02T12:49:18.162Z,4.20
2023-05-02T12:51:54.072Z,4.22
2023-05-02T12:54:21.750Z,4.30
2023-05-02T12:56:51.915Z,4.30
2023-05-02T12:59:27.394Z,4.30
2023-05-02T13:01:55.004Z,3.58
2023-05-02T13:04:22.677Z,2.90
2023-05-02T13:06:50.136Z,3.20
2023-05-02T13:09:18.854Z,3.13
2023-05-02T13:11:46.289Z,3.08
2023-05-02T13:14:13.696Z,3.08
2023-05-02T13:16:41.564Z,3.22
2023-05-02T13:19:09.742Z,3.00
2023-05-02T13:21:37.147Z,2.80
2023-05-02T13:24:04.896Z,2.97
2023-05-02T13:26:32.776Z,3.05
2023-05-02T13:29:00.235Z,3.15
2023-05-02T13:31:27.733Z,4.28
2023-05-02T13:33:55.320Z,4.80
2023-05-02T13:36:24.558Z,5.57
2023-05-02T13:38:51.964Z,5.82
2023-05-02T13:41:19.360Z,5.70
2023-05-02T13:43:46.821Z,7.50
2023-05-02T13:46:14.704Z,6.55
2023-05-02T13:48:42.997Z,5.15
2023-05-02T13:51:10.406Z,5.38
2023-05-02T13:53:38.053Z,5.20
2023-05-02T13:56:05.852Z,6.20
2023-05-02T13:58:33.362Z,5.80
2023-05-02T14:01:01.236Z,5.28
2023-05-02T14:03:28.950Z,5.45
2023-05-02T14:05:56.592Z,4.85
2023-05-02T14:08:24.024Z,4.60
2023-05-02T14:10:51.468Z,4.10
2023-05-02T14:13:19.047Z,3.60
2023-05-02T14:15:46.495Z,3.72
2023-05-02T14:18:13.998Z,4.15
2023-05-02T14:20:41.480Z,4.32
2023-05-02T14:23:08.903Z,4.43
2023-05-02T14:25:36.793Z,3.92
2023-05-02T14:28:04.727Z,4.40
2023-05-02T14:30:32.510Z,4.13
2023-05-02T14:33:00.073Z,4.32
2023-05-02T14:35:27.827Z,4.75
2023-05-02T14:37:55.274Z,4.45
2023-05-02T14:40:22.726Z,4.55
2023-05-02T14:42:50.180Z,4.55
2023-05-02T14:45:17.673Z,4.78
2023-05-02T14:47:45.268Z,4.80
2023-05-02T14:50:12.799Z,4.63
2023-05-02T14:52:40.246Z,5.22
2023-05-02T14:55:07.771Z,5.20
2023-05-02T14:57:35.875Z,5.07
2023-05-02T15:00:04.572Z,4.85
2023-05-02T15:02:32.394Z,5.00
2023-05-02T15:05:00.233Z,4.63
2023-05-02T15:07:28.913Z,4.88
2023-05-02T15:09:56.432Z,4.90
2023-05-02T15:12:24.591Z,4.60
2023-05-02T15:14:52.045Z,4.40
2023-05-02T15:17:19.530Z,4.70
2023-05-02T15:19:46.937Z,4.68
2023-05-02T15:22:15.952Z,4.22
2023-05-02T15:24:43.516Z,4.78
2023-05-02T15:27:10.899Z,5.25
2023-05-02T15:29:38.397Z,5.63
2023-05-02T15:32:06.002Z,5.22
2023-05-02T15:34:33.432Z,5.18
2023-05-02T15:37:01.431Z,5.05
2023-05-02T15:39:29.175Z,5.13
2023-05-02T15:41:58.277Z,5.00
2023-05-02T15:44:26.610Z,5.22
2023-05-02T15:46:55.992Z,5.25
2023-05-02T15:49:25.060Z,5.50
2023-05-02T15:51:52.501Z,5.47
2023-05-02T15:54:20.201Z,5.90
2023-05-02T15:56:47.582Z,5.68
2023-05-02T15:59:15.147Z,6.40
2023-05-02T16:01:42.657Z,6.18
2023-05-02T16:04:10.343Z,8.27
2023-05-02T16:06:38.183Z,17.80
2023-05-02T16:09:06.718Z,12.07
2023-05-02T16:11:34.935Z,8.27
2023-05-02T16:14:02.384Z,7.53
2023-05-02T16:16:29.746Z,7.35
2023-05-02T16:18:57.300Z,7.32
2023-05-02T16:21:24.760Z,6.57
2023-05-02T16:23:52.359Z,7.70
2023-05-02T16:26:20.893Z,7.28
2023-05-02T16:28:48.425Z,7.53
2023-05-02T16:31:16.173Z,7.05
2023-05-02T16:33:43.655Z,6.68
2023-05-02T16:36:11.383Z,6.63
2023-05-02T16:38:38.862Z,6.68
2023-05-02T16:41:07.274Z,8.18
2023-05-02T16:43:35.073Z,9.98
2023-05-02T16:46:03.483Z,10.63
2023-05-02T16:48:31.178Z,10.80
2023-05-02T16:50:58.805Z,11.80
2023-05-02T16:53:26.686Z,12.73
2023-05-02T16:55:54.568Z,15.63
2023-05-02T16:58:22.128Z,15.27
2023-05-02T17:00:49.492Z,16.92
2023-05-02T17:03:16.959Z,17.35
2023-05-02T17:05:44.492Z,18.13
2023-05-02T17:08:11.976Z,18.20
2023-05-02T17:10:39.485Z,17.20
2023-05-02T17:13:07.775Z,19.30
2023-05-02T17:15:38.680Z,18.58
2023-05-02T17:18:06.433Z,18.95
2023-05-02T17:20:34.043Z,17.10
2023-05-02T17:23:02.282Z,16.30
2023-05-02T17:25:30.720Z,16.73
2023-05-02T17:27:58.146Z,17.55
2023-05-02T17:30:25.774Z,19.20
2023-05-02T17:32:53.164Z,18.67
2023-05-02T17:35:20.723Z,18.67
2023-05-02T17:37:48.171Z,18.52
2023-05-02T17:40:15.538Z,18.90
2023-05-02T17:42:45.522Z,17.98
2023-05-02T17:45:13.007Z,14.73
2023-05-02T17:47:40.462Z,14.45
2023-05-02T17:50:08.950Z,14.18
2023-05-02T17:52:36.405Z,13.45
2023-05-02T17:55:04.279Z,13.15
2023-05-02T17:57:31.833Z,11.90
2023-05-02T18:00:00.114Z,10.32
2023-05-02T18:02:28.058Z,8.68
2023-05-02T18:04:55.564Z,8.75
2023-05-02T18:07:29.090Z,8.60
2023-05-02T18:10:02.572Z,8.50
2023-05-02T18:12:31.554Z,9.85
2023-05-02T18:14:58.965Z,10.00
2023-05-02T18:17:27.066Z,10.10
2023-05-02T18:19:54.645Z,8.77
2023-05-02T18:22:22.174Z,8.95
2023-05-02T18:24:49.953Z,9.05
2023-05-02T18:27:18.944Z,10.35
2023-05-02T18:29:47.424Z,10.85
2023-05-02T18:32:14.886Z,11.68
2023-05-02T18:34:42.204Z,11.40
2023-05-02T18:37:09.879Z,11.68
2023-05-02T18:39:37.321Z,12.02
2023-05-02T18:42:05.230Z,12.38
2023-05-02T18:44:32.912Z,12.60
2023-05-02T18:47:01.432Z,11.88
2023-05-02T18:49:28.910Z,13.30
2023-05-02T18:51:56.283Z,14.07
2023-05-02T18:54:24.428Z,13.65
2023-05-02T18:56:51.866Z,13.65
2023-05-02T18:59:19.324Z,13.57
2023-05-02T19:01:48.406Z,13.48
2023-05-02T19:04:16.135Z,14.48
2023-05-02T19:06:43.897Z,14.63
2023-05-02T19:09:13.693Z,15.32
2023-05-02T19:11:41.368Z,16.65
2023-05-02T19:14:08.937Z,16.85
2023-05-02T19:16:38.296Z,17.77
2023-05-02T19:19:06.093Z,17.55
2023-05-02T19:21:36.919Z,18.00
2023-05-02T19:24:04.418Z,18.23
2023-05-02T19:26:32.073Z,17.80
2023-05-02T19:28:59.496Z,16.90
2023-05-02T19:31:27.277Z,17.90
2023-05-02T19:33:55.091Z,17.92
2023-05-02T19:36:23.286Z,19.08
2023-05-02T19:38:54.584Z,19.05
2023-05-02T19:41:22.633Z,19.60
2023-05-02T19:43:50.030Z,19.85
2023-05-02T19:46:18.215Z,21.73
2023-05-02T19:48:45.936Z,22.65
2023-05-02T19:51:13.462Z,24.58
2023-05-02T19:53:40.916Z,25.75
2023-05-02T19:56:08.587Z,27.58
2023-05-02T19:58:36.421Z,27.73
2023-05-02T20:01:03.952Z,27.33
2023-05-02T20:03:31.484Z,28.42
2023-05-02T20:05:59.008Z,28.60
2023-05-02T20:08:28.092Z,29.13
2023-05-02T20:10:56.438Z,29.73
2023-05-02T20:13:23.814Z,28.05
2023-05-02T20:15:51.923Z,28.48
2023-05-02T20:18:19.451Z,27.38
2023-05-02T20:20:47.227Z,26.90
2023-05-02T20:23:14.813Z,26.80
2023-05-02T20:25:43.020Z,25.98
2023-05-02T20:28:11.104Z,25.85
2023-05-02T20:30:42.118Z,25.33
2023-05-02T20:33:15.684Z,24.75
2023-05-02T20:35:44.621Z,24.05
2023-05-02T20:38:12.523Z,26.10
2023-05-02T20:40:40.820Z,25.80
2023-05-02T20:43:08.880Z,26.23
2023-05-02T20:45:36.555Z,26.27
2023-05-02T20:48:03.956Z,27.40
2023-05-02T20:50:31.456Z,29.25
2023-05-02T20:52:59.423Z,30.02
2023-05-02T20:55:27.684Z,31.90
2023-05-02T20:57:55.221Z,32.38
2023-05-02T21:00:22.857Z,30.13
2023-05-02T21:02:50.722Z,31.48
2023-05-02T21:05:18.341Z,31.23
2023-05-02T21:07:45.832Z,29.50
2023-05-02T21:10:13.623Z,30.58
2023-05-02T21:12:41.306Z,30.25
2023-05-02T21:15:08.853Z,29.38
2023-05-02T21:17:36.482Z,27.58
2023-05-02T21:20:05.045Z,28.60
2023-05-02T21:22:34.153Z,27.88
2023-05-02T21:25:01.787Z,28.30
2023-05-02T21:27:30.683Z,27.50
2023-05-02T21:29:59.447Z,27.67
2023-05-02T21:32:29.450Z,28.20
2023-05-02T21:34:57.677Z,27.10
2023-05-02T21:37:25.251Z,26.33
2023-05-02T21:39:53.269Z,25.90
2023-05-02T21:42:21.587Z,25.33
2023-05-02T21:44:51.684Z,25.75
2023-05-02T21:47:21.605Z,24.20
2023-05-02T21:49:50.452Z,25.45
2023-05-02T21:52:19.224Z,24.73
2023-05-02T21:54:50.887Z,24.55
2023-05-02T21:57:19.134Z,24.30
2023-05-02T21:59:46.737Z,27.25
2023-05-02T22:02:14.342Z,25.83
2023-05-02T22:04:41.745Z,26.90
2023-05-02T22:07:09.409Z,26.52
2023-05-02T22:09:37.100Z,26.20
2023-05-02T22:12:04.652Z,28.08
2023-05-02T22:14:41.612Z,27.95
2023-05-02T22:17:12.221Z,28.20
2023-05-02T22:19:40.753Z,28.67
2023-05-02T22:22:08.338Z,29.27
2023-05-02T22:24:36.002Z,29.15
2023-05-02T22:27:03.476Z,29.05
2023-05-02T22:29:31.168Z,26.88
2023-05-02T22:31:58.783Z,27.98
2023-05-02T22:34:26.284Z,28.27
2023-05-02T22:36:53.807Z,29.67
2023-05-02T22:39:21.623Z,30.45
2023-05-02T22:41:49.338Z,31.05
2023-05-02T22:44:16.845Z,32.00
2023-05-02T22:46:44.299Z,30.98
2023-05-02T22:49:11.797Z,30.95
2023-05-02T22:51:42.575Z,32.67
2023-05-02T22:54:10.652Z,31.63
2023-05-02T22:56:38.188Z,32.00
2023-05-02T22:59:05.737Z,30.27
2023-05-02T23:01:33.572Z,27.73
2023-05-02T23:04:02.072Z,28.00
2023-05-02T23:06:30.085Z,27.55
2023-05-02T23:08:58.050Z,27.70
2023-05-02T23:11:26.014Z,27.13
2023-05-02T23:13:53.592Z,26.98
2023-05-02T23:16:21.099Z,28.02
2023-05-02T23:18:48.614Z,28.10
2023-05-02T23:21:16.525Z,28.88
2023-05-02T23:23:43.943Z,29.88
2023-05-02T23:26:11.616Z,30.88
2023-05-02T23:28:39.625Z,30.35
2023-05-02T23:31:07.134Z,31.17
2023-05-02T23:33:36.217Z,31.88
2023-05-02T23:36:03.999Z,32.25
2023-05-02T23:38:32.116Z,33.30
2023-05-02T23:40:59.480Z,33.08
2023-05-02T23:43:27.334Z,33.38
2023-05-02T23:45:54.842Z,34.13
2023-05-02T23:48:22.286Z,33.40
2023-05-02T23:50:49.663Z,35.38
2023-05-02T23:53:17.089Z,35.38
2023-05-02T23:55:44.468Z,34.75
2023-05-02T23:58:11.879Z,32.88
